Terminal Aerodrome Forecast
Issued by NWS Wilmington, NC

Home | Current Version | Previous Version | Text Only | Print | Product List | Glossary On
Versions: 1 2 3 4 5 6 7 8 9 10 11 12 13 14 15 16 17 18 19 20
000
FTUS42 KILM 290520
TAFMYR
TAF
KMYR 290520Z 2906/3006 28007KT P6SM SCT050
     FM290900 33008KT P6SM FEW060
     FM291200 01008KT P6SM FEW060
     FM291500 05006KT P6SM SCT050
     FM292000 09006KT P6SM SCT035
     FM300400 09010KT P6SM SCT040
     FM300500 09010KT P6SM SCT250
      AMD LTD TO CLD VIS AND WIND TIL 291111=

USA.gov is the U.S. government's official web portal to all federal, state and local government web resources and services.